createdAt,value
2023-05-19T00:02:04.875Z,7.60
2023-05-19T00:04:32.892Z,6.70
2023-05-19T00:07:00.566Z,4.80
2023-05-19T00:09:27.400Z,6.10
2023-05-19T00:11:56.036Z,6.30
2023-05-19T00:14:22.801Z,5.30
2023-05-19T00:16:49.795Z,4.40
2023-05-19T00:19:17.190Z,6.40
2023-05-19T00:21:43.882Z,6.10
2023-05-19T00:24:10.583Z,7.80
2023-05-19T00:26:37.558Z,5.60
2023-05-19T00:29:05.490Z,4.30
2023-05-19T00:31:33.354Z,5.20
2023-05-19T00:34:00.904Z,4.80
2023-05-19T00:36:27.566Z,5.60
2023-05-19T00:38:55.907Z,4.30
2023-05-19T00:41:22.505Z,5.90
2023-05-19T00:43:50.459Z,5.00
2023-05-19T00:46:18.597Z,4.00
2023-05-19T00:48:45.412Z,5.00
2023-05-19T00:51:15.970Z,6.80
2023-05-19T00:53:47.718Z,3.90
2023-05-19T00:56:15.948Z,7.10
2023-05-19T00:58:43.313Z,4.80
2023-05-19T01:01:11.675Z,4.90
2023-05-19T01:03:40.158Z,5.70
2023-05-19T01:06:07.516Z,4.20
2023-05-19T01:08:36.478Z,4.20
2023-05-19T01:11:08.314Z,4.00
2023-05-19T01:13:39.719Z,4.60
2023-05-19T01:16:23.525Z,4.50
2023-05-19T01:19:13.522Z,5.10
2023-05-19T01:22:06.247Z,5.30
2023-05-19T01:24:46.264Z,6.30
2023-05-19T01:27:40.950Z,4.80
2023-05-19T01:30:24.742Z,6.80
2023-05-19T01:32:56.497Z,5.20
2023-05-19T01:35:25.480Z,4.50
2023-05-19T01:37:56.058Z,3.80
2023-05-19T01:40:24.306Z,5.70
2023-05-19T01:42:57.323Z,5.80
2023-05-19T01:45:28.030Z,4.50
2023-05-19T01:47:56.584Z,5.50
2023-05-19T01:50:23.403Z,4.60
2023-05-19T01:52:50.554Z,4.70
2023-05-19T01:55:17.460Z,6.00
2023-05-19T01:58:04.576Z,6.80
2023-05-19T02:00:39.877Z,4.70
2023-05-19T02:03:44.058Z,5.40
2023-05-19T02:06:22.554Z,7.50
2023-05-19T02:09:12.911Z,4.00
2023-05-19T02:11:43.852Z,5.50
2023-05-19T02:14:19.788Z,6.20
2023-05-19T02:19:23.438Z,4.40
2023-05-19T02:21:50.188Z,4.90
2023-05-19T02:24:17.231Z,3.80
2023-05-19T02:26:43.814Z,5.80
2023-05-19T02:29:10.496Z,3.70
2023-05-19T02:31:37.373Z,4.70
2023-05-19T02:34:03.951Z,5.90
2023-05-19T02:36:34.663Z,9.90
2023-05-19T02:39:02.018Z,6.20
2023-05-19T02:41:29.841Z,7.00
2023-05-19T02:43:57.306Z,8.10
2023-05-19T02:46:24.006Z,5.10
2023-05-19T02:48:51.637Z,5.20
2023-05-19T02:51:18.275Z,4.70
2023-05-19T02:53:44.858Z,5.30
2023-05-19T02:56:11.548Z,6.00
2023-05-19T02:58:38.909Z,5.10
2023-05-19T03:01:05.479Z,5.50
2023-05-19T03:03:32.374Z,10.20
2023-05-19T03:05:59.007Z,6.30
2023-05-19T03:08:25.704Z,6.90
2023-05-19T03:10:52.294Z,9.90
2023-05-19T03:13:18.940Z,5.50
2023-05-19T03:15:45.612Z,5.50
2023-05-19T03:18:12.796Z,6.30
2023-05-19T03:20:41.874Z,6.80
2023-05-19T03:23:08.596Z,6.10
2023-05-19T03:25:35.748Z,5.70
2023-05-19T03:28:02.753Z,7.10
2023-05-19T03:30:29.339Z,6.40
2023-05-19T03:33:09.749Z,6.30
2023-05-19T03:35:36.427Z,6.20
2023-05-19T03:38:03.047Z,8.20
2023-05-19T03:40:30.301Z,10.00
2023-05-19T03:43:02.425Z,9.70
2023-05-19T03:45:29.452Z,9.80
2023-05-19T03:47:56.249Z,7.20
2023-05-19T03:50:43.891Z,6.30
2023-05-19T03:53:16.081Z,7.40
2023-05-19T03:55:43.929Z,6.70
2023-05-19T03:58:13.909Z,7.60
2023-05-19T04:00:40.898Z,7.00
2023-05-19T04:03:07.750Z,6.90
2023-05-19T04:05:34.555Z,8.50
2023-05-19T04:08:01.104Z,9.80
2023-05-19T04:10:27.729Z,7.10
2023-05-19T04:12:54.675Z,9.00
2023-05-19T04:15:21.313Z,6.10
2023-05-19T04:17:47.948Z,6.90
2023-05-19T04:20:15.056Z,8.80
2023-05-19T04:22:41.623Z,10.70
2023-05-19T04:25:08.857Z,7.40
2023-05-19T04:27:38.144Z,7.60
2023-05-19T04:30:06.019Z,6.90
2023-05-19T04:32:32.849Z,6.60
2023-05-19T04:35:00.061Z,13.60
2023-05-19T04:37:29.294Z,9.70
2023-05-19T04:39:56.596Z,9.00
2023-05-19T04:42:25.510Z,9.00
2023-05-19T04:44:52.425Z,6.40
2023-05-19T04:47:20.902Z,7.80
2023-05-19T04:49:48.077Z,8.30
2023-05-19T04:52:15.276Z,9.50
2023-05-19T04:54:41.906Z,7.10
2023-05-19T04:57:12.452Z,7.30
2023-05-19T04:59:39.424Z,9.20
2023-05-19T05:02:07.553Z,9.20
2023-05-19T05:04:35.444Z,10.00
2023-05-19T05:07:02.103Z,10.30
2023-05-19T05:09:29.360Z,12.60
2023-05-19T05:11:57.596Z,9.30
2023-05-19T05:14:24.741Z,11.30
2023-05-19T05:16:52.290Z,5.60
2023-05-19T05:19:22.809Z,7.80
2023-05-19T05:21:49.720Z,6.20
2023-05-19T05:24:16.824Z,7.70
2023-05-19T05:26:48.006Z,9.50
2023-05-19T05:29:15.926Z,7.30
2023-05-19T05:31:42.511Z,9.70
2023-05-19T05:34:09.995Z,9.90
2023-05-19T05:36:36.948Z,7.10
2023-05-19T05:39:05.105Z,6.70
2023-05-19T05:41:34.678Z,11.20
2023-05-19T05:44:03.923Z,11.00
2023-05-19T05:46:32.090Z,14.80
2023-05-19T05:48:59.498Z,6.80
2023-05-19T05:51:26.591Z,13.80
2023-05-19T05:53:54.535Z,7.80
2023-05-19T05:56:22.575Z,8.10
2023-05-19T05:58:51.422Z,9.10
2023-05-19T06:01:18.036Z,11.90
2023-05-19T06:03:44.795Z,16.70
2023-05-19T06:06:13.766Z,12.10
2023-05-19T06:08:40.675Z,13.10
2023-05-19T06:11:08.542Z,13.90
2023-05-19T06:13:35.888Z,10.50
2023-05-19T06:16:05.158Z,16.30
2023-05-19T06:18:44.248Z,9.10
2023-05-19T06:21:12.755Z,13.80
2023-05-19T06:23:40.585Z,9.70
2023-05-19T06:26:08.728Z,12.60
2023-05-19T06:28:35.563Z,11.40
2023-05-19T06:31:02.814Z,12.80
2023-05-19T06:33:48.329Z,11.40
2023-05-19T06:36:15.731Z,10.90
2023-05-19T06:38:43.505Z,11.30
2023-05-19T06:41:10.274Z,15.40
2023-05-19T06:43:37.249Z,13.70
2023-05-19T06:46:04.132Z,11.70
2023-05-19T06:48:32.977Z,10.50
2023-05-19T06:50:59.669Z,9.50
2023-05-19T06:53:26.790Z,11.20
2023-05-19T06:55:59.521Z,10.70
2023-05-19T06:58:27.661Z,13.10
2023-05-19T07:00:55.213Z,14.80
2023-05-19T07:03:23.732Z,10.00
2023-05-19T07:05:50.559Z,9.20
2023-05-19T07:08:17.620Z,9.90
2023-05-19T07:10:44.166Z,9.40
2023-05-19T07:13:12.306Z,9.90
2023-05-19T07:15:39.042Z,8.40
2023-05-19T07:18:05.957Z,7.50
2023-05-19T07:20:32.923Z,6.70
2023-05-19T07:23:01.934Z,7.70
2023-05-19T07:25:29.886Z,7.20
2023-05-19T07:27:57.012Z,9.10
2023-05-19T07:30:23.743Z,8.00
2023-05-19T07:32:50.324Z,9.10
2023-05-19T07:35:16.937Z,7.70
2023-05-19T07:37:43.493Z,9.40
2023-05-19T07:40:10.343Z,12.00
2023-05-19T07:42:36.943Z,6.30
2023-05-19T07:45:03.882Z,6.00
2023-05-19T07:47:30.709Z,6.00
2023-05-19T07:49:57.279Z,9.40
2023-05-19T07:52:23.831Z,10.60
2023-05-19T07:54:50.359Z,8.10
2023-05-19T07:57:18.329Z,9.70
2023-05-19T07:59:44.960Z,7.40
2023-05-19T08:02:11.635Z,7.60
2023-05-19T08:04:38.636Z,8.30
2023-05-19T08:07:05.229Z,6.50
2023-05-19T08:09:31.806Z,7.30
2023-05-19T08:11:58.402Z,7.30
2023-05-19T08:14:26.356Z,8.70
2023-05-19T08:16:52.895Z,5.70
2023-05-19T08:19:19.549Z,6.90
2023-05-19T08:21:47.683Z,7.60
2023-05-19T08:24:14.661Z,12.00
2023-05-19T08:26:41.389Z,6.70
2023-05-19T08:29:07.897Z,5.30
2023-05-19T08:31:34.617Z,6.70
2023-05-19T08:34:01.404Z,6.70
2023-05-19T08:36:28.827Z,6.90
2023-05-19T08:38:55.611Z,8.80
2023-05-19T08:41:22.761Z,6.10
2023-05-19T08:43:49.565Z,5.30
2023-05-19T08:46:16.318Z,5.70
2023-05-19T08:48:44.440Z,10.90
2023-05-19T08:51:40.812Z,6.60
2023-05-19T08:54:17.649Z,7.10
2023-05-19T08:56:47.249Z,6.70
2023-05-19T08:59:17.278Z,7.60
2023-05-19T09:01:48.036Z,12.50
2023-05-19T09:04:16.384Z,10.90
2023-05-19T09:06:44.433Z,13.10
2023-05-19T09:09:11.255Z,8.10
2023-05-19T09:11:37.970Z,8.00
2023-05-19T09:17:34.503Z,11.00
2023-05-19T09:20:05.396Z,15.30
2023-05-19T09:22:35.905Z,12.80
2023-05-19T09:25:03.970Z,10.90
2023-05-19T09:27:33.826Z,9.60
2023-05-19T09:30:09.309Z,11.10
2023-05-19T09:32:37.342Z,11.70
2023-05-19T09:35:05.870Z,11.20
2023-05-19T09:37:33.856Z,11.80
2023-05-19T09:40:01.961Z,12.10
2023-05-19T09:42:30.588Z,13.20
2023-05-19T09:45:05.381Z,16.00
2023-05-19T09:47:42.466Z,14.50
2023-05-19T09:50:12.328Z,11.80
2023-05-19T09:52:43.660Z,10.30
2023-05-19T09:55:13.359Z,13.80
2023-05-19T09:57:41.647Z,13.10
2023-05-19T10:00:19.784Z,12.60
2023-05-19T10:02:48.706Z,14.00
2023-05-19T10:05:20.507Z,14.20
2023-05-19T10:07:54.696Z,15.70
2023-05-19T10:10:22.953Z,14.50
2023-05-19T10:12:51.099Z,16.00
2023-05-19T10:15:30.269Z,14.20
2023-05-19T10:17:59.455Z,13.50
2023-05-19T10:20:28.456Z,12.70
2023-05-19T10:22:56.471Z,13.50
2023-05-19T10:25:24.642Z,13.20
2023-05-19T10:28:10.394Z,13.80
2023-05-19T10:30:45.122Z,12.60
2023-05-19T10:33:17.467Z,14.00
2023-05-19T10:35:51.904Z,13.30
2023-05-19T10:38:56.781Z,11.40
2023-05-19T10:41:38.197Z,12.20
2023-05-19T10:44:30.837Z,17.40
2023-05-19T10:46:58.857Z,14.80
2023-05-19T10:49:26.872Z,13.40
2023-05-19T10:51:56.868Z,14.40
2023-05-19T10:54:46.718Z,13.30
2023-05-19T10:57:17.077Z,14.80
2023-05-19T10:59:45.314Z,16.70
2023-05-19T11:02:39.866Z,17.00
2023-05-19T11:05:14.617Z,15.30
2023-05-19T11:08:07.884Z,15.30
2023-05-19T11:10:36.049Z,13.80
2023-05-19T11:13:06.915Z,16.50
2023-05-19T11:15:38.869Z,14.70
2023-05-19T11:18:07.554Z,17.60
2023-05-19T11:20:39.170Z,17.10
2023-05-19T11:23:26.001Z,17.20
2023-05-19T11:25:54.470Z,12.60
2023-05-19T11:28:28.216Z,16.90
2023-05-19T11:30:59.173Z,17.10
2023-05-19T11:33:27.714Z,14.60
2023-05-19T11:35:58.699Z,17.60
2023-05-19T11:38:28.675Z,13.70
2023-05-19T11:40:57.205Z,16.00
2023-05-19T11:43:26.174Z,16.00
2023-05-19T11:45:55.143Z,15.10
2023-05-19T11:48:24.738Z,22.70
2023-05-19T11:50:53.179Z,15.40
2023-05-19T11:53:21.420Z,15.50
2023-05-19T11:55:49.842Z,19.10
2023-05-19T11:58:18.219Z,13.80
2023-05-19T12:00:47.710Z,17.20
2023-05-19T12:03:21.067Z,15.10
2023-05-19T12:05:50.009Z,13.20
2023-05-19T12:08:18.913Z,15.30
2023-05-19T12:10:53.130Z,14.10
2023-05-19T12:13:22.824Z,12.70
2023-05-19T12:15:52.401Z,14.30
2023-05-19T12:18:21.126Z,14.90
2023-05-19T12:20:49.425Z,12.40
2023-05-19T12:23:17.809Z,16.50
2023-05-19T12:25:46.179Z,13.60
2023-05-19T12:28:16.414Z,11.50
2023-05-19T12:30:48.066Z,14.50
2023-05-19T12:33:16.649Z,18.10
2023-05-19T12:35:44.720Z,12.40
2023-05-19T12:38:14.812Z,14.60
2023-05-19T12:40:44.008Z,14.10
2023-05-19T12:43:22.154Z,13.30
2023-05-19T12:45:50.380Z,15.90
2023-05-19T12:48:22.653Z,12.60
2023-05-19T12:50:56.649Z,12.50
2023-05-19T12:53:27.526Z,12.50
2023-05-19T12:55:55.985Z,12.50
2023-05-19T12:58:24.244Z,18.80
2023-05-19T13:00:58.773Z,11.60
2023-05-19T13:03:26.958Z,9.70
2023-05-19T13:05:55.444Z,10.00
2023-05-19T13:08:24.724Z,11.40
2023-05-19T13:10:52.847Z,9.80
2023-05-19T13:13:22.082Z,13.20
2023-05-19T13:15:50.694Z,9.10
2023-05-19T13:18:19.063Z,8.50
2023-05-19T13:20:50.251Z,8.70
2023-05-19T13:23:18.786Z,12.40
2023-05-19T13:25:47.790Z,11.80
2023-05-19T13:28:15.785Z,11.10
2023-05-19T13:30:44.515Z,10.10
2023-05-19T13:33:12.748Z,12.80
2023-05-19T13:35:40.809Z,10.60
2023-05-19T13:38:10.168Z,8.90
2023-05-19T13:40:40.008Z,10.50
2023-05-19T13:43:08.729Z,12.50
2023-05-19T13:45:37.293Z,9.70
2023-05-19T13:48:07.378Z,18.70
2023-05-19T13:50:35.702Z,13.80
2023-05-19T13:53:04.028Z,9.00
2023-05-19T13:55:32.720Z,12.10
2023-05-19T13:58:00.770Z,9.60
2023-05-19T14:00:28.981Z,10.80
2023-05-19T14:02:57.004Z,11.30
2023-05-19T14:05:25.248Z,9.60
2023-05-19T14:07:53.321Z,9.10
2023-05-19T14:10:21.512Z,8.10
2023-05-19T14:13:18.260Z,8.20
2023-05-19T14:15:38.501Z,8.40
2023-05-19T14:18:07.307Z,7.60
2023-05-19T14:29:49.731Z,9.30
2023-05-19T14:32:18.183Z,8.70
2023-05-19T14:34:46.354Z,13.30
2023-05-19T14:37:14.317Z,9.40
2023-05-19T14:39:42.357Z,11.70
2023-05-19T14:42:10.843Z,9.30
2023-05-19T14:44:38.925Z,9.00
2023-05-19T14:47:07.495Z,10.20
2023-05-19T14:49:35.747Z,13.90
2023-05-19T14:52:03.983Z,24.80
2023-05-19T14:54:31.968Z,11.70
2023-05-19T14:57:01.515Z,14.90
2023-05-19T14:59:30.706Z,18.40
2023-05-19T15:01:58.679Z,30.20
2023-05-19T15:04:26.717Z,11.40
2023-05-19T15:07:05.901Z,10.90
2023-05-19T15:09:37.895Z,14.00
2023-05-19T15:12:06.141Z,12.80
2023-05-19T15:14:34.202Z,11.00
2023-05-19T15:17:02.182Z,9.60
2023-05-19T15:19:33.485Z,9.10
2023-05-19T15:22:01.716Z,10.10
2023-05-19T15:24:32.897Z,13.10
2023-05-19T15:27:02.023Z,13.60
2023-05-19T15:29:36.343Z,12.10
2023-05-19T15:32:04.479Z,12.30
2023-05-19T15:34:32.492Z,12.50
2023-05-19T15:37:01.705Z,12.00
2023-05-19T15:39:33.734Z,12.70
2023-05-19T15:42:01.866Z,12.00
2023-05-19T15:44:30.302Z,11.60
2023-05-19T15:46:58.268Z,10.00
2023-05-19T15:49:26.316Z,9.70
2023-05-19T15:51:54.367Z,13.30
2023-05-19T15:54:22.825Z,12.60
2023-05-19T15:56:50.782Z,11.40
2023-05-19T15:59:18.803Z,11.60
2023-05-19T16:01:46.784Z,12.60
2023-05-19T16:04:14.963Z,14.40
2023-05-19T16:06:43.372Z,15.40
2023-05-19T16:09:11.543Z,13.30
2023-05-19T16:11:39.526Z,14.30
2023-05-19T16:14:07.458Z,13.90
2023-05-19T16:16:35.559Z,13.70
2023-05-19T16:19:03.527Z,23.60
2023-05-19T16:21:32.332Z,18.20
2023-05-19T16:24:00.348Z,16.70
2023-05-19T16:26:29.043Z,13.40
2023-05-19T16:28:57.033Z,12.30
2023-05-19T16:31:24.989Z,16.00
2023-05-19T16:33:53.022Z,21.80
2023-05-19T16:36:22.784Z,20.00
2023-05-19T16:38:50.881Z,19.80
2023-05-19T16:41:18.924Z,17.30
2023-05-19T16:43:49.049Z,14.50
2023-05-19T16:46:22.051Z,17.30
2023-05-19T16:48:51.258Z,16.80
2023-05-19T16:51:19.956Z,14.80
2023-05-19T16:53:49.299Z,16.80
2023-05-19T16:56:17.717Z,16.00
2023-05-19T16:58:45.872Z,21.40
2023-05-19T17:01:13.917Z,19.00
2023-05-19T17:03:41.940Z,26.10
2023-05-19T17:06:09.905Z,22.80
2023-05-19T17:08:44.387Z,16.50
2023-05-19T17:11:15.853Z,17.70
2023-05-19T17:13:46.394Z,16.30
2023-05-19T17:16:18.257Z,16.90
2023-05-19T17:18:47.944Z,22.60
2023-05-19T17:21:16.035Z,15.10
2023-05-19T17:23:44.046Z,17.90
2023-05-19T17:26:12.095Z,15.60
2023-05-19T17:28:40.484Z,17.30
2023-05-19T17:31:15.859Z,18.30
2023-05-19T17:33:43.878Z,18.10
2023-05-19T17:36:11.888Z,18.00
2023-05-19T17:38:40.502Z,16.20
2023-05-19T17:41:13.947Z,16.40
2023-05-19T17:43:42.089Z,15.50
2023-05-19T17:46:10.094Z,15.70
2023-05-19T17:48:38.204Z,19.10
2023-05-19T17:51:09.088Z,18.70
2023-05-19T17:53:37.431Z,18.20
2023-05-19T17:56:16.519Z,18.00
2023-05-19T17:58:46.640Z,16.40
2023-05-19T18:01:15.089Z,12.90
2023-05-19T18:03:49.388Z,13.00
2023-05-19T18:06:19.051Z,39.30
2023-05-19T18:08:50.733Z,21.50
2023-05-19T18:11:21.731Z,28.10
2023-05-19T18:13:49.872Z,20.00
2023-05-19T18:16:17.984Z,17.60
2023-05-19T18:18:50.437Z,21.50
2023-05-19T18:21:18.915Z,21.30
2023-05-19T18:23:46.944Z,27.70
2023-05-19T18:26:15.986Z,23.80
2023-05-19T18:28:44.033Z,47.10
2023-05-19T18:31:17.549Z,29.80
2023-05-19T18:33:47.168Z,24.70
2023-05-19T18:36:16.666Z,22.80
2023-05-19T18:38:44.811Z,23.60
2023-05-19T18:41:12.819Z,22.00
2023-05-19T18:43:40.873Z,20.80
2023-05-19T18:46:09.040Z,19.00
2023-05-19T18:48:37.089Z,22.70
2023-05-19T18:51:05.139Z,25.80
2023-05-19T18:53:34.687Z,24.40
2023-05-19T18:56:06.314Z,29.00
2023-05-19T18:58:36.726Z,20.50
2023-05-19T19:01:05.237Z,23.50
2023-05-19T19:03:33.325Z,23.80
2023-05-19T19:06:01.316Z,27.50
2023-05-19T19:08:29.289Z,26.20
2023-05-19T19:11:00.293Z,24.20
2023-05-19T19:13:28.549Z,19.60
2023-05-19T19:15:58.663Z,23.50
2023-05-19T19:18:26.968Z,23.40
2023-05-19T19:20:57.343Z,22.00
2023-05-19T19:23:25.546Z,21.50
2023-05-19T19:25:53.956Z,24.50
2023-05-19T19:28:22.741Z,21.80
2023-05-19T19:30:51.192Z,23.20
2023-05-19T19:33:19.275Z,27.30
2023-05-19T19:35:52.360Z,24.10
2023-05-19T19:38:20.600Z,27.70
2023-05-19T19:40:51.444Z,27.00
2023-05-19T19:43:19.516Z,28.00
2023-05-19T19:45:47.492Z,32.30
2023-05-19T19:48:15.926Z,31.50
2023-05-19T19:50:44.161Z,30.30
2023-05-19T19:53:12.303Z,30.70
2023-05-19T19:55:43.259Z,24.50
2023-05-19T19:58:11.287Z,28.40
2023-05-19T20:00:39.261Z,23.40
2023-05-19T20:03:07.758Z,27.40
2023-05-19T20:05:38.157Z,27.50
2023-05-19T20:08:08.025Z,28.40
2023-05-19T20:10:39.177Z,30.80
2023-05-19T20:13:07.465Z,27.00
2023-05-19T20:15:35.612Z,32.10
2023-05-19T20:18:03.698Z,26.40
2023-05-19T20:20:33.361Z,29.60
2023-05-19T20:23:01.499Z,30.40
2023-05-19T20:25:33.030Z,34.80
2023-05-19T20:28:02.153Z,33.60
2023-05-19T20:30:30.120Z,31.80
2023-05-19T20:32:58.401Z,27.70
2023-05-19T20:35:26.526Z,29.10
2023-05-19T20:37:56.994Z,29.90
2023-05-19T20:40:25.040Z,33.60
2023-05-19T20:42:53.168Z,30.60
2023-05-19T20:45:21.408Z,30.30
2023-05-19T20:47:49.421Z,34.80
2023-05-19T20:50:17.502Z,30.90
2023-05-19T20:52:45.840Z,32.90
2023-05-19T20:55:13.801Z,30.30
2023-05-19T20:57:43.909Z,33.90
2023-05-19T21:00:12.286Z,29.60
2023-05-19T21:02:40.496Z,31.30
2023-05-19T21:05:08.717Z,32.80
2023-05-19T21:07:36.784Z,35.40
2023-05-19T21:10:05.249Z,36.10
2023-05-19T21:12:34.355Z,38.50
2023-05-19T21:15:03.745Z,36.30
2023-05-19T21:17:32.143Z,28.60
2023-05-19T21:20:00.634Z,32.00
2023-05-19T21:22:28.637Z,35.20
2023-05-19T21:24:57.079Z,35.00
2023-05-19T21:27:25.192Z,36.70
2023-05-19T21:29:56.073Z,38.60
2023-05-19T21:32:23.992Z,38.00
2023-05-19T21:34:51.960Z,34.90
2023-05-19T21:37:21.224Z,36.30
2023-05-19T21:39:49.301Z,30.90
2023-05-19T21:42:17.632Z,30.80
2023-05-19T21:44:45.728Z,34.60
2023-05-19T21:47:13.789Z,28.20
2023-05-19T21:49:41.796Z,27.40
2023-05-19T21:52:10.146Z,27.90
2023-05-19T21:54:40.863Z,25.80
2023-05-19T21:57:11.145Z,33.10
2023-05-19T21:59:39.146Z,34.30
2023-05-19T22:02:07.295Z,31.70
2023-05-19T22:04:36.009Z,33.90
2023-05-19T22:07:06.474Z,32.80
2023-05-19T22:09:34.505Z,33.10
2023-05-19T22:12:02.510Z,30.10
2023-05-19T22:14:30.632Z,34.70
2023-05-19T22:16:58.643Z,30.80
2023-05-19T22:19:26.656Z,33.30
2023-05-19T22:22:01.724Z,33.60
2023-05-19T22:24:30.404Z,27.50
2023-05-19T22:26:58.518Z,35.10
2023-05-19T22:29:26.490Z,37.30
2023-05-19T22:31:54.471Z,34.30
2023-05-19T22:34:22.524Z,35.40
2023-05-19T22:36:50.500Z,37.00
2023-05-19T22:39:18.540Z,31.40
2023-05-19T22:41:46.570Z,32.30
2023-05-19T22:44:16.274Z,40.00
2023-05-19T22:46:44.786Z,37.60
2023-05-19T22:49:12.748Z,35.70
2023-05-19T22:51:40.772Z,39.90
2023-05-19T22:54:09.578Z,34.00
2023-05-19T22:56:37.614Z,36.30
2023-05-19T22:59:05.873Z,35.50
2023-05-19T23:01:34.050Z,36.20
2023-05-19T23:04:02.181Z,35.70
2023-05-19T23:06:31.454Z,35.20
2023-05-19T23:09:02.136Z,40.60
2023-05-19T23:11:30.702Z,36.30
2023-05-19T23:13:58.743Z,33.10
2023-05-19T23:16:26.689Z,35.90
2023-05-19T23:18:54.684Z,36.70
2023-05-19T23:21:22.714Z,28.30
2023-05-19T23:23:50.795Z,34.10
2023-05-19T23:26:18.783Z,32.70
2023-05-19T23:28:47.085Z,33.00
2023-05-19T23:31:15.116Z,30.60
2023-05-19T23:33:43.080Z,31.60
2023-05-19T23:36:11.040Z,26.00
2023-05-19T23:38:41.747Z,34.10
2023-05-19T23:41:09.729Z,27.40
2023-05-19T23:43:37.950Z,30.40
2023-05-19T23:46:06.095Z,30.30
2023-05-19T23:48:34.476Z,35.50
2023-05-19T23:51:02.513Z,31.60
2023-05-19T23:53:30.542Z,31.90
2023-05-19T23:55:58.840Z,32.90
2023-05-19T23:58:26.834Z,27.60
